Time;durP1;ratioP1;P1;durP2;ratioP2;P2;SDS_P1;SDS_P2;PMS_P1;PMS_P2;Temp;Humidity;BMP_temperature;BMP_pressure;BME280_temperature;BME280_humidity;BME280_pressure;Samples;Min_cycle;Max_cycle;Signal;HPM_P1;HPM_P2
2021/05/06 00:04:56;;;;;;;6.05;1.80;;;4.90;99.90;;;4.01;77.86;97026.44;4948059;28;20048;-66
2021/05/06 00:11:13;;;;;;;4.85;1.67;;;4.70;99.90;;;3.85;78.87;97025.97;4949646;28;20058;-65
2021/05/06 00:34:53;;;;;;;5.10;2.03;;;4.70;99.90;;;3.70;80.38;97009.25;4945926;28;20036;-66
2021/05/06 00:37:54;;;;;;;6.43;1.80;;;4.70;99.90;;;3.80;80.32;97003.00;4923684;29;20059;-66
2021/05/06 01:07:49;;;;;;;4.80;2.10;;;4.20;99.90;;;3.41;82.13;97003.06;4949480;29;20051;-65
2021/05/06 01:11:01;;;;;;;8.93;2.70;;;4.10;99.90;;;3.31;82.53;96999.88;4925698;29;20103;-66
2021/05/06 01:13:49;;;;;;;6.30;2.45;;;4.10;99.90;;;3.20;82.65;96999.28;4935829;29;20051;-66
2021/05/06 01:16:37;;;;;;;7.50;3.00;;;4.00;99.90;;;3.16;83.10;96994.25;4929109;29;20094;-66
2021/05/06 01:19:24;;;;;;;7.07;2.35;;;4.00;99.90;;;3.11;82.93;96994.34;4937322;28;20170;-66
2021/05/06 01:22:10;;;;;;;6.25;2.00;;;4.00;99.90;;;3.05;83.13;96995.31;4936639;28;20046;-66
2021/05/06 01:24:59;;;;;;;7.88;2.22;;;3.90;99.90;;;3.21;83.29;96985.56;4950309;28;20055;-66
2021/05/06 01:28:02;;;;;;;5.68;2.22;;;4.00;99.90;;;3.19;83.62;96991.59;4934660;29;20130;-66
2021/05/06 01:30:56;;;;;;;8.52;2.35;;;4.00;99.90;;;3.23;84.10;96980.41;4945985;28;20042;-66
2021/05/06 01:34:02;;;;;;;;;;;3.90;99.90;;;3.08;84.93;96986.72;4940148;29;20134;-66
2021/05/06 01:36:55;;;;;;;6.85;3.17;;;4.00;99.90;;;3.19;84.07;96979.63;4940882;28;19926;-66
2021/05/06 01:42:41;;;;;;;7.13;2.47;;;3.90;99.90;;;3.08;84.08;96969.63;4932827;29;20043;-66
2021/05/06 02:00:18;;;;;;;;;;;4.20;99.90;;;3.44;83.96;96990.16;4941850;28;20175;-66
2021/05/06 02:03:05;;;;;;;7.97;2.97;;;4.20;99.90;;;3.37;84.14;96980.09;4950886;29;20394;-65
2021/05/06 02:05:53;;;;;;;8.25;2.50;;;4.30;99.90;;;3.47;84.16;96973.88;4931119;29;20055;-65
2021/05/06 02:08:40;;;;;;;7.22;2.65;;;4.30;99.90;;;3.45;84.13;96962.81;4949363;29;20368;-65
2021/05/06 02:11:26;;;;;;;7.32;2.58;;;4.40;99.90;;;3.52;84.43;96970.31;4950604;28;20046;-65
2021/05/06 02:14:13;;;;;;;9.80;2.65;;;4.50;99.90;;;3.56;84.12;96976.22;4943786;29;20121;-65
2021/05/06 02:17:00;;;;;;;5.97;2.60;;;4.50;99.90;;;3.66;83.72;96969.97;4942291;28;20416;-66
2021/05/06 02:19:48;;;;;;;8.82;3.00;;;4.50;99.90;;;3.69;83.50;96969.88;4948820;29;20054;-65
2021/05/06 02:22:35;;;;;;;9.63;2.65;;;4.50;99.90;;;3.67;83.97;96963.97;4949058;28;20046;-65
2021/05/06 02:25:22;;;;;;;8.57;2.95;;;4.60;99.90;;;3.70;83.62;96956.19;4949302;28;20150;-65
2021/05/06 02:28:09;;;;;;;8.18;2.95;;;4.60;99.90;;;3.73;83.66;96958.66;4949450;29;20051;-65
2021/05/06 02:30:56;;;;;;;12.10;3.13;;;4.60;99.90;;;3.74;83.52;96955.22;4941825;28;20075;-66
2021/05/06 02:33:44;;;;;;;9.18;2.78;;;4.70;99.90;;;3.69;83.86;96949.34;4932473;28;20547;-66
2021/05/06 02:36:31;;;;;;;9.85;2.78;;;4.80;99.90;;;3.89;82.90;96953.97;4948742;29;20040;-66
2021/05/06 02:39:19;;;;;;;7.50;2.47;;;4.70;99.90;;;3.84;82.61;96949.84;4942553;28;20039;-65
2021/05/06 02:42:06;;;;;;;7.20;2.95;;;4.70;99.90;;;3.81;82.91;96942.22;4939971;29;20081;-66
2021/05/06 02:44:53;;;;;;;7.65;2.55;;;4.80;99.90;;;3.80;82.44;96948.25;4934018;29;20069;-66
2021/05/06 02:47:40;;;;;;;6.53;2.60;;;4.80;99.90;;;3.82;83.01;96942.19;4934118;29;20069;-65
2021/05/06 02:50:27;;;;;;;12.20;2.72;;;4.90;99.90;;;3.88;82.31;96943.75;4950376;28;20040;-66
2021/05/06 02:53:18;;;;;;;6.82;2.33;;;4.90;99.90;;;3.96;81.98;96940.09;4943687;28;20065;-66
2021/05/06 03:04:49;;;;;;;4.63;2.00;;;4.90;99.90;;;3.94;82.05;96948.72;4950262;29;20042;-65
2021/05/06 03:07:38;;;;;;;12.55;2.45;;;4.90;99.90;;;3.96;82.17;96947.78;4939983;28;20051;-64
2021/05/06 03:11:16;;;;;;;7.00;2.67;;;4.90;99.90;;;3.96;82.20;96937.53;4949136;28;20043;-64
2021/05/06 03:22:50;;;;;;;9.77;2.22;;;5.00;99.90;;;4.04;81.23;96926.19;4947457;28;20468;-64
2021/05/06 03:25:37;;;;;;;7.60;2.05;;;5.00;99.90;;;3.97;80.19;96930.69;4941059;28;20043;-64
2021/05/06 03:28:27;;;;;;;9.85;1.75;;;5.10;99.90;;;4.09;80.15;96924.38;4956063;29;20174;-64
2021/05/06 03:31:28;;;;;;;5.45;2.10;;;5.00;99.90;;;4.02;80.91;96928.81;4954907;28;20043;-64
2021/05/06 04:17:48;;;;;;;9.45;2.38;;;4.80;99.90;;;3.91;82.26;96887.19;4952122;28;20542;-65
2021/05/06 04:27:10;;;;;;;6.65;1.70;;;4.80;99.90;;;3.89;83.55;96878.69;4934322;28;20058;-66
2021/05/06 04:36:06;;;;;;;7.05;2.33;;;4.80;99.90;;;3.88;83.02;96869.31;4953019;29;20051;-64
2021/05/06 04:38:53;;;;;;;7.93;2.10;;;4.80;99.90;;;3.87;83.40;96877.88;4952212;29;20043;-64
2021/05/06 04:41:50;;;;;;;12.07;2.60;;;4.70;99.90;;;3.73;84.05;96879.09;4953206;28;20050;-66
2021/05/06 05:05:41;;;;;;;8.13;2.03;;;4.70;99.90;;;3.75;85.29;96869.63;4939556;29;20062;-65
2021/05/06 05:08:33;;;;;;;9.82;2.70;;;4.60;99.90;;;3.55;83.55;96889.84;4941439;28;20067;-65
2021/05/06 05:14:36;;;;;;;7.53;2.70;;;4.40;99.90;;;3.59;84.30;96877.78;4951330;28;20073;-64
2021/05/06 05:26:13;;;;;;;8.48;2.63;;;4.40;99.90;;;3.59;86.95;96872.66;4936416;28;20043;-64
2021/05/06 05:29:00;;;;;;;6.47;2.58;;;4.50;99.90;;;3.66;86.86;96869.03;4948441;29;20198;-64
2021/05/06 05:31:50;;;;;;;6.72;1.80;;;4.50;99.90;;;3.46;86.53;96879.81;4949706;28;20047;-65
2021/05/06 05:34:40;;;;;;;6.07;2.20;;;4.60;99.90;;;3.55;87.37;96874.44;4952290;28;20043;-65
2021/05/06 05:37:35;;;;;;;6.32;2.35;;;4.60;99.90;;;3.46;88.21;96890.91;4940473;29;20110;-66
2021/05/06 05:40:28;;;;;;;17.17;2.75;;;4.60;99.90;;;3.56;88.16;96894.09;4927053;28;20058;-66
2021/05/06 05:55:12;;;;;;;7.40;2.72;;;4.70;99.90;;;3.42;87.97;96893.59;4948819;29;20512;-66
2021/05/06 05:57:59;;;;;;;7.80;2.25;;;4.60;99.90;;;3.55;87.50;96897.53;4946990;28;20460;-65
2021/05/06 06:00:46;;;;;;;7.60;2.42;;;4.60;99.90;;;3.60;87.14;96887.97;4939803;28;20461;-66
2021/05/06 06:03:33;;;;;;;7.20;2.92;;;4.60;99.90;;;3.49;87.10;96892.56;4950600;28;20491;-66
2021/05/06 06:06:19;;;;;;;8.10;2.75;;;4.60;99.90;;;3.41;87.38;96894.47;4949889;29;20475;-66
2021/05/06 06:09:06;;;;;;;9.43;2.63;;;4.60;99.90;;;3.44;88.41;96890.09;4951633;29;20070;-65
2021/05/06 06:11:53;;;;;;;9.23;2.78;;;4.70;99.90;;;3.51;88.82;96895.91;4949042;28;20043;-65
2021/05/06 06:14:54;;;;;;;8.30;3.33;;;4.70;99.90;;;3.49;87.53;96892.56;4922428;29;20043;-66
2021/05/06 06:17:44;;;;;;;9.73;3.85;;;4.80;99.90;;;3.68;87.69;96887.81;4933569;29;20047;-65
2021/05/06 06:20:34;;;;;;;9.85;2.67;;;4.80;99.90;;;3.62;87.26;96885.38;4950708;28;20399;-66
2021/05/06 06:23:21;;;;;;;11.15;3.10;;;4.80;99.90;;;3.89;86.45;96876.94;4930125;29;20541;-65
2021/05/06 06:26:08;;;;;;;7.47;3.10;;;4.80;99.90;;;3.54;87.29;96885.59;4937518;28;20051;-64
2021/05/06 06:29:02;;;;;;;11.15;3.65;;;4.90;99.90;;;3.47;87.15;96884.06;4952509;29;20102;-65
2021/05/06 06:31:50;;;;;;;5.25;2.35;;;5.00;99.90;;;3.67;86.68;96875.84;4943564;28;20055;-65
2021/05/06 06:34:37;;;;;;;8.27;3.42;;;5.00;99.90;;;3.62;87.17;96880.25;4936857;29;20039;-65
2021/05/06 06:37:24;;;;;;;10.45;3.42;;;5.00;99.90;;;3.68;87.95;96880.09;4948845;29;20037;-65
2021/05/06 06:40:13;;;;;;;8.25;3.42;;;5.10;99.90;;;3.94;86.97;96867.38;4949334;29;20456;-65
2021/05/06 06:43:01;;;;;;;9.70;2.85;;;5.10;99.90;;;4.33;86.83;96863.75;4949509;29;20182;-65
2021/05/06 06:45:48;;;;;;;5.07;2.67;;;5.20;99.90;;;4.31;85.75;96855.22;4946360;29;20306;-65
2021/05/06 06:48:35;;;;;;;8.15;3.00;;;5.40;99.90;;;4.55;85.93;96858.81;4931531;29;20052;-65
2021/05/06 06:51:22;;;;;;;7.30;3.60;;;5.60;99.90;;;4.49;85.04;96859.81;4934744;28;20040;-65
2021/05/06 06:54:09;;;;;;;7.90;3.30;;;5.60;99.90;;;4.29;84.84;96846.72;4948941;29;20036;-65
2021/05/06 06:56:56;;;;;;;7.57;3.17;;;5.60;99.90;;;4.43;85.57;96854.06;4943182;29;20448;-65
2021/05/06 06:59:42;;;;;;;10.00;3.72;;;5.70;99.90;;;4.87;85.08;96844.97;4939721;29;20492;-65
2021/05/06 07:02:29;;;;;;;7.03;2.72;;;5.80;99.90;;;4.82;83.12;96846.84;4947909;28;20051;-65
2021/05/06 07:05:17;;;;;;;10.15;3.40;;;5.90;99.90;;;4.21;85.92;96846.97;4927580;29;20147;-65
2021/05/06 07:08:23;;;;;;;4.43;2.13;;;6.10;99.90;;;4.52;85.61;96836.63;4945251;29;20075;-67
2021/05/06 07:11:10;;;;;;;7.15;2.70;;;6.10;99.90;;;4.69;84.37;96843.81;4948245;28;20062;-66
2021/05/06 07:13:57;;;;;;;9.45;3.17;;;6.20;99.90;;;4.87;84.72;96828.69;4948681;29;20055;-65
2021/05/06 07:16:44;;;;;;;7.78;3.13;;;6.20;99.90;;;4.65;84.70;96833.66;4941239;29;20191;-65
2021/05/06 07:19:31;;;;;;;5.75;2.30;;;6.40;99.90;;;5.06;83.14;96829.78;4949331;29;20040;-65
2021/05/06 07:22:18;;;;;;;9.13;3.08;;;6.30;99.90;;;5.36;84.63;96825.38;4936538;29;20103;-65
2021/05/06 07:25:12;;;;;;;7.32;3.58;;;6.30;99.90;;;4.99;84.99;96833.44;4930268;29;20172;-65
2021/05/06 07:28:19;;;;;;;8.25;3.08;;;6.50;99.90;;;4.98;84.20;96831.78;4932325;29;20058;-65
2021/05/06 07:31:10;;;;;;;7.43;2.22;;;6.40;99.90;;;5.22;82.95;96824.97;4942831;28;20091;-65
2021/05/06 07:34:00;;;;;;;6.50;2.90;;;6.40;99.90;;;5.06;83.18;96834.09;4935936;29;20541;-65
2021/05/06 07:36:50;;;;;;;6.88;2.47;;;6.40;99.90;;;5.14;84.00;96832.94;4949268;29;20055;-65
2021/05/06 07:39:38;;;;;;;5.65;2.63;;;6.40;99.90;;;4.87;82.83;96826.97;4937754;29;20482;-65
2021/05/06 07:42:28;;;;;;;7.72;2.88;;;6.20;99.90;;;5.08;83.81;96820.28;4936551;29;20040;-65
2021/05/06 07:45:16;;;;;;;10.32;2.70;;;6.20;99.90;;;4.86;82.67;96837.28;4951627;29;20507;-65
2021/05/06 07:48:06;;;;;;;12.23;7.57;;;6.20;99.90;;;4.75;85.10;96835.91;4936581;29;20113;-65
2021/05/06 07:50:58;;;;;;;8.02;4.32;;;6.20;99.90;;;5.17;83.75;96826.84;4950708;29;20047;-65
2021/05/06 07:53:51;;;;;;;6.97;3.35;;;6.20;99.90;;;4.70;84.08;96832.66;4947353;29;20043;-65
2021/05/06 07:56:43;;;;;;;5.97;3.15;;;6.30;99.90;;;4.68;85.79;96826.72;4950476;29;20137;-65
2021/05/06 07:59:30;;;;;;;6.68;3.53;;;6.30;99.90;;;4.93;85.17;96818.22;4951670;28;20059;-65
2021/05/06 08:02:17;;;;;;;7.28;3.47;;;6.50;99.90;;;5.01;84.56;96814.50;4942130;29;20502;-65
2021/05/06 08:05:05;;;;;;;8.55;3.72;;;6.50;99.90;;;5.11;84.42;96809.91;4936355;28;20040;-65
2021/05/06 08:07:52;;;;;;;7.35;3.70;;;6.70;99.90;;;5.65;83.45;96811.47;4921034;29;20071;-66
2021/05/06 08:10:38;;;;;;;5.72;2.85;;;6.90;99.90;;;5.60;82.50;96815.09;4940238;29;20070;-65
2021/05/06 08:13:28;;;;;;;4.85;3.15;;;7.00;99.90;;;5.82;82.70;96812.63;4943832;29;20103;-65
2021/05/06 08:16:14;;;;;;;10.20;3.42;;;7.10;99.90;;;5.31;81.91;96816.94;4935614;29;20059;-65
2021/05/06 08:18:59;;;;;;;7.47;3.47;;;7.20;99.90;;;5.40;83.26;96810.63;4921139;29;20054;-65
2021/05/06 08:21:46;;;;;;;5.95;3.17;;;7.20;99.90;;;5.13;82.55;96820.13;4948716;29;20054;-65
2021/05/06 08:24:31;;;;;;;8.30;3.95;;;7.20;99.90;;;5.34;81.67;96806.56;4935839;29;20047;-64
2021/05/06 08:27:16;;;;;;;8.60;3.17;;;7.10;99.90;;;5.79;81.22;96808.44;4953161;29;20172;-65
2021/05/06 08:30:04;;;;;;;7.38;3.78;;;7.00;99.90;;;5.41;82.32;96813.16;4954624;29;20062;-65
2021/05/06 08:32:51;;;;;;;8.27;4.15;;;7.10;99.90;;;5.69;82.76;96812.22;4933216;29;20162;-65
2021/05/06 08:35:39;;;;;;;10.00;3.53;;;7.20;99.90;;;5.49;81.46;96815.47;4940411;29;20081;-65
2021/05/06 08:38:25;;;;;;;10.95;3.70;;;7.30;99.90;;;5.88;81.38;96812.38;4954309;29;20567;-65
2021/05/06 08:41:13;;;;;;;3.17;2.13;;;7.10;99.90;;;5.97;79.61;96808.66;4954913;29;20044;-65
2021/05/06 08:44:02;;;;;;;6.70;3.00;;;6.90;99.90;;;6.05;80.03;96817.81;4923469;29;20503;-65
2021/05/06 08:47:02;;;;;;;7.90;2.40;;;6.90;99.90;;;6.05;78.10;96810.06;4920682;29;20107;-65
2021/05/06 08:49:50;;;;;;;6.72;2.83;;;7.00;99.90;;;6.15;78.68;96814.88;4945715;29;20075;-65
2021/05/06 08:52:40;;;;;;;6.20;2.42;;;7.20;99.90;;;5.71;81.02;96807.84;4952691;29;20079;-65
2021/05/06 08:55:27;;;;;;;6.75;3.22;;;7.30;99.90;;;5.50;82.70;96812.03;4934499;28;20480;-65
2021/05/06 08:58:14;;;;;;;5.88;3.67;;;7.20;99.90;;;5.93;82.03;96809.63;4948923;28;20043;-64
2021/05/06 09:01:00;;;;;;;9.52;3.17;;;7.30;99.90;;;6.22;80.13;96816.34;4947531;28;20044;-65
2021/05/06 09:03:47;;;;;;;7.78;3.13;;;7.40;99.90;;;6.19;79.76;96813.88;4945093;28;20047;-65
2021/05/06 09:06:34;;;;;;;6.38;3.00;;;7.40;99.90;;;6.11;80.01;96815.88;4945301;29;20732;-65
2021/05/06 09:09:23;;;;;;;8.50;3.80;;;7.40;99.90;;;6.45;79.04;96810.31;4952829;28;20052;-65
2021/05/06 09:12:10;;;;;;;7.05;3.38;;;7.50;99.90;;;5.78;80.67;96818.78;4930927;29;20051;-65
2021/05/06 09:15:13;;;;;;;5.45;3.13;;;7.60;99.90;;;6.46;78.64;96806.84;4933418;29;20122;-65
2021/05/06 09:18:00;;;;;;;5.67;2.80;;;8.00;99.90;;;7.16;74.43;96787.72;4951494;29;20070;-65
2021/05/06 09:20:47;;;;;;;5.18;2.75;;;8.30;99.90;;;7.46;74.61;96792.47;4944244;29;20555;-65
2021/05/06 09:23:35;;;;;;;6.70;2.95;;;9.00;99.90;;;7.25;73.67;96792.50;4952962;28;20503;-65
2021/05/06 09:26:29;;;;;;;7.15;2.63;;;9.40;99.90;;;7.01;73.00;96804.66;4951515;29;20039;-65
2021/05/06 09:29:36;;;;;;;4.68;1.90;;;9.60;99.90;;;6.86;71.77;96821.56;4939264;29;20058;-65
2021/05/06 09:32:23;;;;;;;6.68;2.42;;;9.80;99.90;;;7.68;70.64;96789.78;4947333;29;20432;-65
2021/05/06 09:35:17;;;;;;;7.50;2.90;;;10.20;99.90;;;7.75;69.46;96792.06;4947109;28;20039;-65
2021/05/06 09:37:56;;;;;;;6.72;2.22;;;10.50;99.90;;;8.01;69.78;96786.66;4950926;28;20043;-65
2021/05/06 09:40:23;;;;;;;6.57;1.92;;;10.70;99.90;;;8.05;68.87;96781.25;4951100;28;20051;-64
2021/05/06 09:42:52;;;;;;;6.10;1.65;;;10.40;99.90;;;8.04;67.89;96784.75;4944325;29;20113;-64
2021/05/06 09:45:26;;;;;;;3.88;2.13;;;9.60;99.90;;;7.89;70.53;96775.09;4956665;28;20079;-64
2021/05/06 09:48:13;;;;;;;5.03;2.00;;;9.90;99.90;;;8.67;68.21;96768.09;4949272;28;20043;-64
2021/05/06 09:50:46;;;;;;;6.10;2.42;;;10.70;99.90;;;8.31;69.30;96758.53;4937418;29;20115;-64
2021/05/06 09:53:20;;;;;;;5.22;1.92;;;11.00;99.90;;;8.06;68.84;96758.84;4950604;29;20074;-64
2021/05/06 09:56:07;;;;;;;7.80;2.58;;;10.40;99.90;;;7.80;69.63;96765.16;4952016;29;20118;-64
2021/05/06 09:58:59;;;;;;;3.45;2.20;;;10.50;99.90;;;8.21;68.02;96763.31;4941463;28;20138;-65
2021/05/06 10:01:45;;;;;;;8.45;2.50;;;9.90;99.90;;;7.83;66.76;96750.38;4943923;29;20537;-64
2021/05/06 10:04:32;;;;;;;6.47;2.58;;;9.80;99.90;;;7.55;70.18;96745.59;4952041;29;20053;-64
2021/05/06 10:07:25;;;;;;;5.65;2.70;;;9.60;99.90;;;7.37;69.57;96749.81;4941804;29;20543;-64
2021/05/06 10:10:13;;;;;;;9.10;3.70;;;9.50;99.90;;;7.51;69.54;96741.47;4940345;29;20396;-64
2021/05/06 10:13:01;;;;;;;5.43;2.58;;;9.70;99.90;;;7.13;72.05;96736.19;4939262;29;20048;-64
2021/05/06 10:15:48;;;;;;;8.48;3.03;;;9.80;99.90;;;7.91;70.63;96716.44;4926896;29;20063;-64
2021/05/06 10:18:40;;;;;;;10.07;3.03;;;9.80;99.90;;;8.48;69.36;96706.03;4932238;28;20047;-64
2021/05/06 10:21:27;;;;;;;11.52;3.42;;;9.70;99.90;;;7.73;71.89;96723.25;4936370;28;20059;-64
2021/05/06 10:24:16;;;;;;;5.55;3.10;;;9.50;99.90;;;7.15;71.72;96739.56;4949645;29;20054;-64
2021/05/06 10:27:03;;;;;;;8.43;3.60;;;9.30;99.90;;;7.20;73.09;96729.88;4940629;29;20051;-64
2021/05/06 10:29:55;;;;;;;8.52;3.30;;;9.10;99.90;;;7.31;72.32;96701.03;4938991;29;20534;-64
2021/05/06 10:32:44;;;;;;;8.27;3.65;;;8.60;99.90;;;6.98;73.64;96699.00;4931842;29;20048;-64
2021/05/06 10:35:31;;;;;;;6.93;3.03;;;8.30;99.90;;;7.15;72.36;96695.69;4932507;29;20511;-64
2021/05/06 10:38:18;;;;;;;10.73;3.53;;;8.30;99.90;;;7.11;72.69;96697.56;4917999;29;20539;-64
2021/05/06 10:41:30;;;;;;;6.30;3.20;;;8.20;99.90;;;6.78;74.17;96699.81;4934963;29;20118;-64
2021/05/06 10:44:16;;;;;;;7.15;3.70;;;8.30;99.90;;;6.94;75.26;96700.03;4949937;29;20043;-64
2021/05/06 10:47:04;;;;;;;12.32;3.85;;;8.40;99.90;;;7.22;75.02;96709.16;4935676;29;20609;-64
2021/05/06 10:49:51;;;;;;;6.63;3.75;;;8.50;99.90;;;7.00;74.39;96710.09;4946729;28;20515;-64
2021/05/06 10:52:39;;;;;;;13.23;4.45;;;8.40;99.90;;;6.78;76.33;96680.94;4930270;29;20051;-65
2021/05/06 10:55:50;;;;;;;8.13;3.60;;;8.40;99.90;;;7.46;76.79;96669.38;4941286;28;20058;-65
2021/05/06 10:58:38;;;;;;;11.40;4.63;;;8.30;99.90;;;7.09;76.01;96673.59;4936323;29;20130;-65
2021/05/06 11:01:24;;;;;;;11.82;4.05;;;8.40;99.90;;;7.62;76.76;96663.50;4940754;29;20058;-65
2021/05/06 11:04:10;;;;;;;9.55;4.13;;;8.70;99.90;;;7.79;75.60;96665.34;4925583;29;20107;-65
2021/05/06 11:07:12;;;;;;;13.18;6.25;;;9.30;99.90;;;8.29;74.87;96660.34;4936793;28;20142;-65
2021/05/06 11:10:02;;;;;;;11.68;3.53;;;9.60;99.90;;;7.97;73.90;96667.88;4943432;28;20439;-65
2021/05/06 11:12:57;;;;;;;8.70;3.33;;;9.50;99.90;;;8.25;74.21;96642.47;4936065;29;20074;-64
2021/05/06 11:15:44;;;;;;;11.07;3.72;;;9.30;99.90;;;8.46;71.06;96636.31;4936836;29;20043;-65
2021/05/06 11:18:49;;;;;;;10.25;3.08;;;9.50;99.90;;;8.65;69.19;96628.47;4937675;29;20047;-65
2021/05/06 11:21:40;;;;;;;10.45;3.85;;;9.40;99.90;;;8.16;70.39;96625.66;4946628;28;20047;-64
2021/05/06 11:24:27;;;;;;;16.77;4.40;;;9.20;99.90;;;7.56;73.37;96633.63;4928286;29;20046;-65
2021/05/06 11:27:20;;;;;;;10.68;4.05;;;9.00;99.90;;;7.35;75.09;96639.78;4943400;28;20090;-65
2021/05/06 11:30:43;;;;;;;7.15;3.55;;;8.80;99.90;;;7.31;76.74;96632.16;4941014;29;20050;-65
2021/05/06 11:33:30;;;;;;;11.70;4.07;;;8.50;99.90;;;7.25;77.64;96616.97;4944110;28;20055;-65
2021/05/06 11:36:19;;;;;;;10.45;3.25;;;8.30;99.90;;;7.20;76.96;96605.16;4949916;29;20420;-65
2021/05/06 11:39:26;;;;;;;10.45;4.50;;;8.20;99.90;;;7.15;78.98;96610.53;4932422;29;20134;-65
2021/05/06 11:42:13;;;;;;;7.53;2.42;;;8.30;99.90;;;6.92;77.09;96601.22;4948105;29;20047;-65
2021/05/06 11:45:13;;;;;;;7.03;2.58;;;8.10;99.90;;;7.08;78.91;96602.22;4938417;28;20055;-65
2021/05/06 11:48:00;;;;;;;10.57;2.85;;;7.90;99.90;;;7.06;79.99;96600.63;4934094;29;20150;-65
2021/05/06 11:50:50;;;;;;;7.63;2.10;;;7.90;99.90;;;6.58;81.87;96609.56;4946119;28;20043;-65
2021/05/06 11:53:38;;;;;;;8.20;2.65;;;7.90;99.90;;;6.83;81.58;96601.63;4949215;28;20062;-65
2021/05/06 11:56:25;;;;;;;7.60;2.95;;;7.80;99.90;;;7.06;82.28;96593.69;4944868;29;20138;-65
2021/05/06 11:59:18;;;;;;;14.27;3.50;;;7.90;99.90;;;7.27;82.97;96597.06;4940084;28;20126;-65
2021/05/06 12:02:08;;;;;;;6.40;3.20;;;8.10;99.90;;;6.79;81.30;96585.44;4933665;29;20365;-65
2021/05/06 12:04:55;;;;;;;18.70;7.78;;;8.20;99.90;;;6.71;82.78;96577.19;4943028;29;20058;-65
2021/05/06 12:07:42;;;;;;;8.80;2.70;;;8.30;99.90;;;7.10;80.63;96573.78;4946113;29;20039;-65
2021/05/06 12:10:29;;;;;;;6.70;2.95;;;8.40;99.90;;;7.30;80.70;96562.56;4943674;29;20046;-65
2021/05/06 12:13:17;;;;;;;6.45;2.10;;;8.40;99.90;;;7.42;80.85;96553.41;4945973;29;20051;-65
2021/05/06 12:16:21;;;;;;;7.70;2.60;;;8.20;99.90;;;6.80;82.64;96550.19;4947704;29;20428;-65
2021/05/06 12:19:13;;;;;;;7.10;2.55;;;8.10;99.90;;;7.11;80.29;96536.72;4947302;28;20066;-65
2021/05/06 12:22:00;;;;;;;4.22;1.73;;;8.10;99.90;;;7.00;81.07;96534.66;4945793;28;20142;-64
2021/05/06 12:24:49;;;;;;;6.75;1.77;;;8.20;99.90;;;7.30;79.95;96522.09;4935162;28;20393;-65
2021/05/06 12:27:37;;;;;;;6.10;1.58;;;8.10;99.90;;;6.98;81.15;96528.72;4939422;29;20055;-64
2021/05/06 12:30:27;;;;;;;3.97;1.60;;;8.10;99.90;;;6.69;81.31;96535.16;4950665;29;20114;-65
2021/05/06 12:33:33;;;;;;;11.57;5.22;;;7.90;99.90;;;6.45;84.36;96549.94;4938932;29;20055;-65
2021/05/06 12:36:20;;;;;;;6.18;1.65;;;7.80;99.90;;;6.19;83.61;96538.16;4952579;29;20052;-65
2021/05/06 12:39:08;;;;;;;5.00;1.88;;;7.80;99.90;;;6.51;83.28;96528.22;4934629;29;20376;-64
2021/05/06 12:42:04;;;;;;;6.00;1.40;;;7.70;99.90;;;6.87;80.83;96515.47;4923410;29;20050;-64
2021/05/06 12:44:52;;;;;;;4.78;1.75;;;7.70;99.90;;;6.82;80.88;96507.06;4935124;28;20499;-64
2021/05/06 12:47:45;;;;;;;5.05;1.80;;;7.70;99.90;;;6.97;82.10;96498.66;4945356;29;20047;-64
2021/05/06 12:50:35;;;;;;;5.63;1.00;;;7.80;99.90;;;6.38;81.45;96507.28;4939289;29;20099;-64
2021/05/06 12:53:22;;;;;;;4.63;1.40;;;7.80;99.90;;;6.64;82.92;96503.59;4940015;29;20051;-64
2021/05/06 12:56:29;;;;;;;2.90;1.10;;;7.70;99.90;;;6.80;82.66;96496.00;4934001;29;20059;-65
2021/05/06 12:59:28;;;;;;;2.33;1.30;;;7.70;99.90;;;6.53;81.83;96498.06;4933784;29;20511;-65
2021/05/06 13:02:17;;;;;;;2.42;0.90;;;7.70;99.90;;;6.82;81.42;96487.31;4938584;28;20058;-65
2021/05/06 13:05:06;;;;;;;4.35;0.95;;;7.60;99.90;;;6.89;80.68;96483.53;4934437;29;20074;-64
2021/05/06 13:07:54;;;;;;;4.53;0.73;;;7.60;99.90;;;6.62;81.45;96489.94;4950615;28;20528;-65
2021/05/06 13:10:46;;;;;;;1.40;0.88;;;7.60;99.90;;;6.29;81.70;96487.91;4950732;28;20047;-64
2021/05/06 13:13:47;;;;;;;3.33;0.95;;;7.50;99.90;;;6.67;82.56;96473.34;4944492;29;20055;-65
2021/05/06 13:16:44;;;;;;;4.45;1.00;;;7.50;99.90;;;6.57;81.91;96464.34;4948955;29;20078;-65
2021/05/06 13:19:34;;;;;;;3.55;0.80;;;7.60;99.90;;;6.57;81.24;96466.94;4949336;28;20048;-65
2021/05/06 13:22:22;;;;;;;2.72;0.93;;;7.60;99.90;;;6.46;81.43;96458.84;4942212;29;20123;-65
2021/05/06 13:25:10;;;;;;;3.13;1.02;;;7.70;99.90;;;6.62;81.87;96449.50;4933742;29;20048;-65
2021/05/06 13:27:56;;;;;;;2.60;0.95;;;7.80;99.90;;;6.94;81.92;96436.88;4925802;29;20055;-65
2021/05/06 13:30:47;;;;;;;1.90;0.98;;;7.80;99.90;;;7.28;82.07;96440.47;4939421;29;21674;-65
2021/05/06 13:33:34;;;;;;;2.72;0.93;;;8.10;99.90;;;7.05;81.99;96433.81;4923329;29;20055;-65
2021/05/06 13:36:28;;;;;;;3.15;1.02;;;8.20;99.90;;;7.44;81.80;96433.66;4938303;28;20043;-65
2021/05/06 13:39:16;;;;;;;2.63;0.70;;;8.40;99.90;;;7.52;80.39;96422.94;4949819;28;20050;-70
2021/05/06 13:42:03;;;;;;;2.40;0.90;;;8.60;99.90;;;7.12;80.24;96425.69;4925707;29;20051;-66
2021/05/06 13:44:53;;;;;;;4.32;1.15;;;8.70;99.90;;;6.72;81.39;96424.13;4935703;29;20091;-65
2021/05/06 13:47:43;;;;;;;4.25;1.20;;;8.30;99.90;;;6.86;81.60;96398.53;4944764;28;20546;-65
2021/05/06 13:50:31;;;;;;;2.67;0.80;;;8.10;99.90;;;7.31;81.86;96386.09;4945132;28;20055;-70
2021/05/06 13:53:18;;;;;;;2.22;0.70;;;8.20;99.90;;;7.31;81.12;96368.03;4926595;29;20166;-65
2021/05/06 13:56:05;;;;;;;4.20;1.30;;;8.40;99.90;;;6.63;81.59;96391.03;4934186;28;20066;-64
2021/05/06 13:58:53;;;;;;;2.25;0.90;;;8.30;99.90;;;6.81;82.13;96399.66;4934448;29;20032;-65
2021/05/06 14:01:51;;;;;;;5.60;1.55;;;8.00;99.90;;;6.49;83.06;96394.25;4931608;29;20043;-64
2021/05/06 14:04:38;;;;;;;1.98;0.80;;;7.90;99.90;;;6.61;82.44;96391.09;4930034;29;20039;-65
2021/05/06 14:07:25;;;;;;;2.20;0.80;;;7.70;99.90;;;6.60;82.31;96366.22;4943818;29;20047;-68
2021/05/06 14:10:12;;;;;;;2.72;0.85;;;7.40;99.90;;;6.48;82.78;96364.22;4944200;29;20507;-66
2021/05/06 14:12:58;;;;;;;3.38;0.70;;;7.40;99.90;;;6.62;81.54;96361.00;4940088;28;20044;-66
2021/05/06 14:15:46;;;;;;;3.20;1.08;;;7.40;99.90;;;6.71;82.35;96352.84;4933508;29;20230;-66
2021/05/06 14:18:33;;;;;;;2.50;0.93;;;7.40;99.90;;;6.50;83.64;96349.53;4942553;28;20397;-66
2021/05/06 14:21:23;;;;;;;2.42;1.30;;;7.50;99.90;;;6.91;84.27;96349.31;4938858;29;20054;-66
2021/05/06 14:24:12;;;;;;;2.60;0.73;;;7.70;99.90;;;7.19;83.13;96342.84;4936457;28;20079;-67
2021/05/06 14:27:00;;;;;;;2.33;0.85;;;8.00;99.90;;;7.31;82.71;96337.91;4933686;29;20035;-66
2021/05/06 14:29:47;;;;;;;2.70;1.00;;;8.30;99.90;;;6.73;83.45;96338.16;4925614;28;20452;-66
2021/05/06 14:32:34;;;;;;;1.38;0.60;;;8.20;99.90;;;7.07;83.42;96321.88;4951171;28;20043;-66
2021/05/06 14:35:21;;;;;;;1.67;0.60;;;8.20;99.90;;;7.07;83.58;96326.19;4941454;28;20415;-66
2021/05/06 14:38:13;;;;;;;1.13;0.40;;;8.20;99.90;;;7.25;81.70;96314.13;4934373;29;20131;-66
2021/05/06 14:41:00;;;;;;;2.63;0.77;;;8.10;99.90;;;7.15;82.83;96312.94;4941949;29;20031;-66
2021/05/06 14:43:46;;;;;;;1.90;0.60;;;8.10;99.90;;;7.00;83.87;96309.34;4943326;29;20393;-66
2021/05/06 14:46:33;;;;;;;1.67;0.63;;;8.00;99.90;;;7.11;83.72;96304.50;4945371;29;20541;-67
2021/05/06 14:49:20;;;;;;;2.58;0.80;;;8.10;99.90;;;7.30;83.03;96305.25;4929560;29;20055;-67
2021/05/06 14:52:05;;;;;;;1.00;0.60;;;8.20;99.90;;;7.16;83.42;96293.94;4939698;29;20447;-67
2021/05/06 14:54:50;;;;;;;2.15;0.60;;;8.20;99.90;;;7.21;82.57;96297.16;4937315;29;20138;-66
2021/05/06 14:57:40;;;;;;;1.33;0.50;;;8.10;99.90;;;7.00;82.41;96283.53;4932077;29;20510;-67
2021/05/06 15:00:27;;;;;;;2.35;0.55;;;7.90;99.90;;;6.82;82.94;96274.94;4931001;29;20439;-66
2021/05/06 15:03:13;;;;;;;3.92;0.80;;;7.80;99.90;;;6.45;85.04;96281.88;4940845;28;20087;-66
2021/05/06 15:06:01;;;;;;;2.33;1.05;;;7.50;99.90;;;6.42;86.56;96277.69;4928623;29;20372;-66
2021/05/06 15:08:51;;;;;;;2.63;0.98;;;7.40;99.90;;;6.46;85.98;96262.94;4924785;29;20452;-66
2021/05/06 15:11:38;;;;;;;1.35;0.60;;;7.30;99.90;;;6.37;86.13;96253.06;4933970;29;20058;-66
2021/05/06 15:14:14;;;;;;;1.85;0.60;;;7.20;99.90;;;6.48;86.63;96258.53;4950204;29;20043;-66
2021/05/06 15:16:41;;;;;;;2.10;0.75;;;7.20;99.90;;;6.53;86.66;96253.16;4917541;29;20043;-66
2021/05/06 15:19:12;;;;;;;2.58;0.70;;;7.30;99.90;;;6.63;86.06;96262.13;4927236;29;20047;-66